createdAt,value
2019-05-01T00:00:32.236Z,101273.28
2019-05-01T00:03:04.882Z,101271.54
2019-05-01T00:05:37.573Z,101265.80
2019-05-01T00:08:08.853Z,101275.16
2019-05-01T00:10:39.903Z,101270.76
2019-05-01T00:13:11.063Z,101272.15
2019-05-01T00:15:42.499Z,101265.93
2019-05-01T00:18:13.534Z,101271.77
2019-05-01T00:20:44.588Z,101266.43
2019-05-01T00:23:15.587Z,101267.77
2019-05-01T00:25:46.601Z,101263.80
2019-05-01T00:28:17.650Z,101266.43
2019-05-01T00:30:48.653Z,101254.03
2019-05-01T00:33:19.629Z,101250.91
2019-05-01T00:35:50.632Z,101242.95
2019-05-01T00:38:21.613Z,101240.33
2019-05-01T00:40:53.289Z,101239.04
2019-05-01T00:43:24.273Z,101243.94
2019-05-01T00:45:55.339Z,101246.66
2019-05-01T00:48:26.339Z,101247.59
2019-05-01T00:50:57.310Z,101248.09
2019-05-01T00:53:28.291Z,101244.53
2019-05-01T00:56:06.760Z,101246.32
2019-05-01T00:58:37.636Z,101251.22
2019-05-01T01:01:10.253Z,101244.55
2019-05-01T01:03:41.826Z,101237.48
2019-05-01T01:06:12.652Z,101234.81
2019-05-01T01:08:43.507Z,101232.20
2019-05-01T01:11:14.501Z,101236.19
2019-05-01T01:13:45.515Z,101233.97
2019-05-01T01:16:16.514Z,101229.08
2019-05-01T01:18:47.487Z,101226.42
2019-05-01T01:21:18.476Z,101228.20
2019-05-01T01:23:49.537Z,101221.57
2019-05-01T01:26:20.517Z,101224.69
2019-05-01T01:28:51.528Z,101219.84
2019-05-01T01:31:22.499Z,101226.06
2019-05-01T01:33:53.476Z,101219.88
2019-05-01T01:36:24.560Z,101214.15
2019-05-01T01:38:55.609Z,101219.92
2019-05-01T01:41:26.648Z,101211.48
2019-05-01T01:43:59.348Z,101212.38
2019-05-01T01:46:34.954Z,101203.48
2019-05-01T01:49:05.948Z,101199.93
2019-05-01T01:51:36.927Z,101194.59
2019-05-01T01:54:07.936Z,101203.52
2019-05-01T01:56:39.045Z,101193.75
2019-05-01T01:59:10.094Z,101197.30
2019-05-01T02:01:42.757Z,101201.75
2019-05-01T02:04:15.372Z,101195.52
2019-05-01T02:06:46.859Z,101185.27
2019-05-01T02:09:17.851Z,101185.30
2019-05-01T02:11:49.524Z,101181.70
2019-05-01T02:14:20.507Z,101186.64
2019-05-01T02:16:51.535Z,101178.64
2019-05-01T02:19:22.545Z,101183.53
2019-05-01T02:21:53.526Z,101174.23
2019-05-01T02:24:24.528Z,101178.24
2019-05-01T02:26:57.211Z,101172.47
2019-05-01T02:29:42.156Z,101174.28
2019-05-01T02:32:14.927Z,101175.18
2019-05-01T02:34:46.204Z,101168.55
2019-05-01T02:37:17.268Z,101163.70
2019-05-01T02:39:48.923Z,101166.38
2019-05-01T02:42:21.437Z,101173.97
2019-05-01T02:44:54.111Z,101165.53
2019-05-01T02:47:31.198Z,101169.08
2019-05-01T02:50:12.929Z,101163.75
2019-05-01T02:52:44.995Z,101161.54
2019-05-01T02:55:23.920Z,101160.69
2019-05-01T02:57:54.914Z,101158.46
2019-05-01T03:00:26.603Z,101160.69
2019-05-01T03:02:57.913Z,101153.58
2019-05-01T03:05:28.896Z,101156.28
2019-05-01T03:07:59.921Z,101153.62
2019-05-01T03:10:30.886Z,101158.51
2019-05-01T03:13:01.963Z,101150.52
2019-05-01T03:15:34.959Z,101156.73
2019-05-01T03:18:10.012Z,101154.11
2019-05-01T03:20:42.659Z,101153.22
2019-05-01T03:23:18.146Z,101159.92
2019-05-01T03:25:49.273Z,101150.64
2019-05-01T03:28:19.996Z,101156.45
2019-05-01T03:30:51.259Z,101153.83
2019-05-01T03:33:22.734Z,101154.72
2019-05-01T03:35:53.776Z,101158.30
2019-05-01T03:38:25.072Z,101156.08
2019-05-01T03:40:56.122Z,101146.80
2019-05-01T03:43:27.209Z,101149.46
2019-05-01T03:45:58.216Z,101150.80
2019-05-01T03:48:29.177Z,101153.94
2019-05-01T03:51:00.170Z,101152.20
2019-05-01T03:53:31.215Z,101145.09
2019-05-01T03:56:02.235Z,101143.77
2019-05-01T03:58:33.550Z,101148.64
2019-05-01T04:01:09.498Z,101149.09
2019-05-01T04:03:57.879Z,101150.87
2019-05-01T04:06:29.126Z,101149.98
2019-05-01T04:09:00.176Z,101151.79
2019-05-01T04:11:31.225Z,101150.94
2019-05-01T04:14:02.316Z,101151.82
2019-05-01T04:16:34.628Z,101147.83
2019-05-01T04:19:06.365Z,101152.70
2019-05-01T04:21:39.077Z,101144.75
2019-05-01T04:24:10.051Z,101140.76
2019-05-01T04:26:41.185Z,101135.91
2019-05-01T04:29:15.041Z,101148.34
2019-05-01T04:31:53.955Z,101146.12
2019-05-01T04:34:35.598Z,101154.52
2019-05-01T04:37:17.881Z,101156.77
2019-05-01T04:39:49.116Z,101152.77
2019-05-01T04:42:20.092Z,101145.27
2019-05-01T04:44:51.092Z,101146.59
2019-05-01T04:47:22.168Z,101148.81
2019-05-01T04:49:53.848Z,101149.70
2019-05-01T04:52:25.173Z,101151.06
2019-05-01T04:54:56.628Z,101151.06
2019-05-01T04:57:27.717Z,101156.41
2019-05-01T04:59:58.813Z,101148.87
2019-05-01T05:02:34.176Z,101151.98
2019-05-01T05:05:06.679Z,101152.01
2019-05-01T05:07:37.664Z,101156.00
2019-05-01T05:10:08.746Z,101152.45
2019-05-01T05:12:57.552Z,101152.86
2019-05-01T05:15:46.269Z,101157.74
2019-05-01T05:18:17.772Z,101150.67
2019-05-01T05:20:49.291Z,101153.37
2019-05-01T05:23:20.275Z,101168.01
2019-05-01T05:25:51.555Z,101160.02
2019-05-01T05:28:22.804Z,101156.44
2019-05-01T05:30:54.781Z,101161.35
2019-05-01T05:33:26.729Z,101164.90
2019-05-01T05:35:56.974Z,101172.47
2019-05-01T05:38:42.656Z,101169.41
2019-05-01T05:41:13.924Z,101166.75
2019-05-01T05:43:45.279Z,101171.66
2019-05-01T05:46:16.632Z,101168.98
2019-05-01T05:48:47.788Z,101170.31
2019-05-01T05:51:26.301Z,101172.53
2019-05-01T05:53:58.933Z,101168.98
2019-05-01T05:56:34.509Z,101171.20
2019-05-01T05:59:18.839Z,101166.36
2019-05-01T06:01:54.875Z,101173.42
2019-05-01T06:04:44.937Z,101171.65
2019-05-01T06:07:22.512Z,101179.63
2019-05-01T06:09:57.759Z,101179.66
2019-05-01T06:12:37.262Z,101182.73
2019-05-01T06:15:12.740Z,101177.88
2019-05-01T06:17:48.039Z,101178.33
2019-05-01T06:20:34.074Z,101172.09
2019-05-01T06:23:11.217Z,101176.97
2019-05-01T06:25:45.423Z,101175.20
2019-05-01T06:28:19.762Z,101174.75
2019-05-01T06:30:49.927Z,101174.75
2019-05-01T06:33:20.941Z,101177.86
2019-05-01T06:35:51.912Z,101171.65
2019-05-01T06:38:24.744Z,101171.66
2019-05-01T06:40:58.323Z,101172.52
2019-05-01T06:43:43.693Z,101168.97
2019-05-01T06:46:14.999Z,101169.83
2019-05-01T06:48:53.393Z,101167.64
2019-05-01T06:51:33.796Z,101168.97
2019-05-01T06:54:11.454Z,101168.97
2019-05-01T06:56:41.098Z,101161.84
2019-05-01T06:59:13.385Z,101164.48
2019-05-01T07:01:45.100Z,101160.02
2019-05-01T07:04:16.351Z,101167.53
2019-05-01T07:06:47.392Z,101163.52
2019-05-01T07:09:27.782Z,101159.08
2019-05-01T07:11:52.670Z,101163.48
2019-05-01T07:14:24.369Z,101159.94
2019-05-01T07:16:55.423Z,101157.69
2019-05-01T07:19:44.211Z,101163.42
2019-05-01T07:22:15.263Z,101166.05
2019-05-01T07:24:49.006Z,101160.73
2019-05-01T07:27:23.581Z,101155.84
2019-05-01T07:29:55.808Z,101155.37
2019-05-01T07:32:26.872Z,101160.25
2019-05-01T07:35:01.924Z,101163.33
2019-05-01T07:37:30.558Z,101162.37
2019-05-01T07:40:01.637Z,101165.92
2019-05-01T07:42:35.625Z,101158.75
2019-05-01T07:45:20.228Z,101160.00
2019-05-01T07:47:53.434Z,101154.59
2019-05-01T07:50:31.592Z,101160.37
2019-05-01T07:52:57.352Z,101154.55
2019-05-01T07:55:37.680Z,101160.29
2019-05-01T07:58:15.908Z,101153.14
2019-05-01T08:00:51.488Z,101146.87
2019-05-01T08:03:22.500Z,101149.00
2019-05-01T08:05:53.654Z,101147.12
2019-05-01T08:08:24.640Z,101139.97
2019-05-01T08:10:59.616Z,101138.98
2019-05-01T08:13:30.704Z,101137.99
2019-05-01T08:16:06.974Z,101143.70
2019-05-01T08:18:39.120Z,101134.63
2019-05-01T08:21:27.665Z,101141.63
2019-05-01T08:23:58.683Z,101135.80
2019-05-01T08:26:29.651Z,101133.17
2019-05-01T08:29:18.397Z,101137.62
2019-05-01T08:32:03.440Z,101148.19
2019-05-01T08:34:47.958Z,101133.94
2019-05-01T08:37:08.288Z,101142.78
2019-05-01T08:39:39.805Z,101132.49
2019-05-01T08:42:11.952Z,101138.27
2019-05-01T08:45:05.066Z,101135.55
2019-05-01T08:47:39.582Z,101133.77
2019-05-01T08:50:24.775Z,101134.27
2019-05-01T08:52:53.744Z,101128.54
2019-05-01T08:55:24.741Z,101125.44
2019-05-01T08:57:55.727Z,101131.61
2019-05-01T09:00:30.854Z,101128.94
2019-05-01T09:03:08.106Z,101121.80
2019-05-01T09:05:33.950Z,101110.99
2019-05-01T09:08:05.151Z,101107.23
2019-05-01T09:10:36.124Z,101111.48
2019-05-01T09:13:07.141Z,101117.14
2019-05-01T09:15:38.758Z,101109.55
2019-05-01T09:18:09.761Z,101111.66
2019-05-01T09:20:42.018Z,101102.20
2019-05-01T09:23:14.393Z,101092.69
2019-05-01T09:25:59.339Z,101092.56
2019-05-01T09:28:36.039Z,101088.33
2019-05-01T09:31:06.308Z,101088.17
2019-05-01T09:33:37.294Z,101088.80
2019-05-01T09:36:08.345Z,101086.68
2019-05-01T09:38:39.324Z,101078.38
2019-05-01T09:41:10.336Z,101085.29
2019-05-01T09:43:41.293Z,101083.72
2019-05-01T09:46:12.287Z,101089.34
2019-05-01T09:48:43.842Z,101081.22
2019-05-01T09:51:16.479Z,101084.30
2019-05-01T09:53:49.169Z,101073.53
2019-05-01T09:56:24.482Z,101077.09
2019-05-01T09:58:55.456Z,101078.84
2019-05-01T10:01:31.552Z,101076.06
2019-05-01T10:03:59.196Z,101077.25
2019-05-01T10:06:30.342Z,101071.84
2019-05-01T10:09:01.466Z,101076.25
2019-05-01T10:11:35.948Z,101070.85
2019-05-01T10:14:06.204Z,101069.43
2019-05-01T10:16:37.203Z,101061.72
2019-05-01T10:19:08.170Z,101056.19
2019-05-01T10:21:39.173Z,101068.11
2019-05-01T10:24:10.150Z,101064.84
2019-05-01T10:26:42.769Z,101058.48
2019-05-01T10:29:27.614Z,101056.58
2019-05-01T10:32:09.288Z,101056.97
2019-05-01T10:34:57.020Z,101044.97
2019-05-01T10:37:33.164Z,101059.20
2019-05-01T10:40:00.897Z,101048.02
2019-05-01T10:42:32.045Z,101044.34
2019-05-01T10:45:03.053Z,101039.75
2019-05-01T10:47:34.292Z,101029.40
2019-05-01T10:50:05.612Z,101031.02
2019-05-01T10:52:36.579Z,101031.72
2019-05-01T10:55:08.239Z,101029.38
2019-05-01T10:57:40.662Z,101027.03
2019-05-01T11:00:12.164Z,101010.78
2019-05-01T11:02:43.159Z,101018.19
2019-05-01T11:05:14.194Z,101011.84
2019-05-01T11:07:45.179Z,101017.93
2019-05-01T11:10:16.300Z,101012.08
2019-05-01T11:12:47.297Z,101014.66
2019-05-01T11:15:18.555Z,101008.74
2019-05-01T11:17:49.533Z,101009.56
2019-05-01T11:20:20.513Z,100997.81
2019-05-01T11:22:51.481Z,101000.79
2019-05-01T11:25:22.943Z,100993.95
2019-05-01T11:27:53.922Z,100997.77
2019-05-01T11:30:24.974Z,100992.27
2019-05-01T11:33:09.536Z,100990.78
2019-05-01T11:36:08.986Z,100987.89
2019-05-01T11:38:44.254Z,100989.09
2019-05-01T11:41:22.754Z,100990.27
2019-05-01T11:43:53.711Z,100985.25
2019-05-01T11:46:24.705Z,100980.69
2019-05-01T11:48:55.681Z,100978.78
2019-05-01T11:51:26.701Z,100969.20
2019-05-01T11:53:57.667Z,100970.18
2019-05-01T11:56:28.669Z,100961.36
2019-05-01T11:58:59.672Z,100960.56
2019-05-01T12:01:30.648Z,100961.17
2019-05-01T12:04:01.625Z,100958.98
2019-05-01T12:06:32.611Z,100963.46
2019-05-01T12:09:05.236Z,100951.93
2019-05-01T12:11:37.862Z,100951.72
2019-05-01T12:14:08.857Z,100955.05
2019-05-01T12:16:57.649Z,100944.13
2019-05-01T12:19:32.566Z,100949.59
2019-05-01T12:22:03.581Z,100953.05
2019-05-01T12:24:34.697Z,100944.39
2019-05-01T12:27:05.675Z,100946.87
2019-05-01T12:29:36.646Z,100938.97
2019-05-01T12:32:07.670Z,100933.83
2019-05-01T12:34:38.688Z,100939.03
2019-05-01T12:37:27.411Z,100932.69
2019-05-01T12:39:58.419Z,100925.48
2019-05-01T12:42:31.044Z,100926.38
2019-05-01T12:45:02.038Z,100924.44
2019-05-01T12:47:38.108Z,100915.30
2019-05-01T12:50:10.965Z,100912.39
2019-05-01T12:52:44.792Z,100910.27
2019-05-01T12:55:30.492Z,100920.26
2019-05-01T12:58:02.390Z,100907.45
2019-05-01T13:00:52.736Z,100905.78
2019-05-01T13:03:23.814Z,100905.13
2019-05-01T13:05:54.794Z,100896.40
2019-05-01T13:08:25.808Z,100899.23
2019-05-01T13:10:56.899Z,100886.45
2019-05-01T13:13:27.902Z,100882.83
2019-05-01T13:15:58.903Z,100883.38
2019-05-01T13:18:29.887Z,100879.80
2019-05-01T13:21:00.884Z,100875.41
2019-05-01T13:23:31.895Z,100870.02
2019-05-01T13:26:04.534Z,100867.73
2019-05-01T13:28:37.741Z,100868.48
2019-05-01T13:31:25.368Z,100864.25
2019-05-01T13:33:56.412Z,100860.13
2019-05-01T13:36:27.391Z,100865.11
2019-05-01T13:38:58.400Z,100852.10
2019-05-01T13:41:29.392Z,100852.43
2019-05-01T13:44:00.453Z,100851.86
2019-05-01T13:46:31.419Z,100847.20
2019-05-01T13:49:02.393Z,100849.23
2019-05-01T13:51:33.731Z,100844.12
2019-05-01T13:54:06.578Z,100841.28
2019-05-01T13:56:37.561Z,100840.25
2019-05-01T13:59:10.452Z,100838.53
2019-05-01T14:01:41.430Z,100836.30
2019-05-01T14:04:13.477Z,100840.75
2019-05-01T14:06:44.445Z,100832.52
2019-05-01T14:09:17.226Z,100828.28
2019-05-01T14:11:48.204Z,100825.91
2019-05-01T14:14:19.216Z,100831.30
2019-05-01T14:16:50.224Z,100824.97
2019-05-01T14:27:43.032Z,100816.22
2019-05-01T14:30:14.383Z,100816.69
2019-05-01T14:32:45.355Z,100814.71
2019-05-01T14:35:16.695Z,100806.09
2019-05-01T14:37:47.672Z,100808.38
2019-05-01T14:40:18.822Z,100794.75
2019-05-01T14:42:49.811Z,100795.27
2019-05-01T14:45:21.087Z,100802.08
2019-05-01T14:47:52.071Z,100781.17
2019-05-01T14:50:23.076Z,100787.57
2019-05-01T14:52:54.075Z,100787.46
2019-05-01T14:55:25.076Z,100788.72
2019-05-01T14:57:56.092Z,100796.61
2019-05-01T15:00:27.144Z,100788.89
2019-05-01T15:02:58.115Z,100786.66
2019-05-01T15:05:29.114Z,100786.86
2019-05-01T15:08:00.104Z,100782.55
2019-05-01T15:10:31.103Z,100780.38
2019-05-01T15:13:09.534Z,100776.00
2019-05-01T15:15:44.860Z,100777.35
2019-05-01T15:18:20.746Z,100776.52
2019-05-01T15:20:51.774Z,100774.91
2019-05-01T15:23:22.798Z,100775.05
2019-05-01T15:25:53.750Z,100775.66
2019-05-01T15:28:24.770Z,100777.71
2019-05-01T15:30:55.741Z,100776.55
2019-05-01T15:33:26.754Z,100776.69
2019-05-01T15:35:57.755Z,100769.59
2019-05-01T15:38:28.730Z,100768.86
2019-05-01T15:40:59.502Z,100770.75
2019-05-01T15:43:32.132Z,100769.88
2019-05-01T15:46:03.115Z,100764.59
2019-05-01T15:48:34.129Z,100769.13
2019-05-01T15:51:05.180Z,100766.36
2019-05-01T15:53:36.185Z,100759.11
2019-05-01T15:56:07.156Z,100761.80
2019-05-01T15:58:38.146Z,100767.19
2019-05-01T16:01:09.142Z,100758.70
2019-05-01T16:03:40.147Z,100761.05
2019-05-01T16:06:11.150Z,100758.00
2019-05-01T16:08:42.143Z,100754.89
2019-05-01T16:11:15.062Z,100754.89
2019-05-01T16:13:46.041Z,100750.95
2019-05-01T16:16:17.038Z,100756.38
2019-05-01T16:18:48.050Z,100754.23
2019-05-01T16:21:19.024Z,100747.72
2019-05-01T16:23:50.033Z,100753.75
2019-05-01T16:26:21.012Z,100752.17
2019-05-01T16:28:52.017Z,100748.73
2019-05-01T16:31:22.990Z,100747.11
2019-05-01T16:33:53.989Z,100749.93
2019-05-01T16:36:24.970Z,100741.58
2019-05-01T16:39:06.592Z,100734.44
2019-05-01T16:41:37.571Z,100737.73
2019-05-01T16:44:08.543Z,100734.20
2019-05-01T16:46:39.619Z,100736.56
2019-05-01T16:49:10.595Z,100733.38
2019-05-01T16:51:41.596Z,100727.20
2019-05-01T16:54:12.647Z,100723.77
2019-05-01T16:56:43.633Z,100726.03
2019-05-01T16:59:14.622Z,100724.73
2019-05-01T17:01:47.240Z,100715.88
2019-05-01T17:04:26.840Z,100713.23
2019-05-01T17:06:59.455Z,100715.59
2019-05-01T17:09:48.358Z,100716.15
2019-05-01T17:12:20.979Z,100709.98
2019-05-01T17:14:51.996Z,100713.72
2019-05-01T17:17:24.218Z,100713.82
2019-05-01T17:19:55.198Z,100709.50
2019-05-01T17:22:26.259Z,100710.05
2019-05-01T17:24:57.242Z,100706.14
2019-05-01T17:27:28.240Z,100712.91
2019-05-01T17:29:59.233Z,100713.42
2019-05-01T17:32:30.270Z,100710.88
2019-05-01T17:35:01.810Z,100710.16
2019-05-01T17:37:33.941Z,100708.06
2019-05-01T17:40:07.950Z,100710.46
2019-05-01T17:42:38.985Z,100705.22
2019-05-01T17:45:10.169Z,100699.59
2019-05-01T17:47:41.137Z,100704.67
2019-05-01T17:50:16.487Z,100704.72
2019-05-01T17:52:45.058Z,100701.70
2019-05-01T17:55:16.112Z,100705.43
2019-05-01T17:57:47.105Z,100701.49
2019-05-01T18:00:36.060Z,100701.70
2019-05-01T18:03:25.225Z,100706.69
2019-05-01T18:06:04.869Z,100703.83
2019-05-01T18:08:35.955Z,100706.67
2019-05-01T18:11:09.443Z,100704.16
2019-05-01T18:13:39.624Z,100699.83
2019-05-01T18:16:10.608Z,100699.91
2019-05-01T18:18:41.643Z,100704.98
2019-05-01T18:21:13.064Z,100706.44
2019-05-01T18:23:53.102Z,100707.06
2019-05-01T18:26:29.473Z,100708.52
2019-05-01T18:29:05.795Z,100703.32
2019-05-01T18:31:37.907Z,100707.96
2019-05-01T18:34:08.864Z,100709.04
2019-05-01T18:36:54.895Z,100702.98
2019-05-01T18:39:30.087Z,100708.43
2019-05-01T18:42:08.184Z,100705.40
2019-05-01T18:44:42.516Z,100705.48
2019-05-01T18:47:12.014Z,100702.03
2019-05-01T18:49:43.050Z,100701.22
2019-05-01T18:52:14.196Z,100699.11
2019-05-01T18:54:45.180Z,100699.27
2019-05-01T18:57:16.186Z,100705.58
2019-05-01T18:59:47.193Z,100706.58
2019-05-01T19:02:20.485Z,100712.97
2019-05-01T19:04:50.860Z,100709.44
2019-05-01T19:07:21.843Z,100706.48
2019-05-01T19:09:53.590Z,100707.20
2019-05-01T19:12:24.565Z,100716.69
2019-05-01T19:14:55.561Z,100719.98
2019-05-01T19:17:26.580Z,100717.89
2019-05-01T19:19:57.547Z,100716.24
2019-05-01T19:22:28.555Z,100723.19
2019-05-01T19:24:59.586Z,100722.44
2019-05-01T19:27:30.617Z,100720.89
2019-05-01T19:30:01.626Z,100719.75
2019-05-01T19:32:34.045Z,100721.30
2019-05-01T19:35:08.707Z,100726.36
2019-05-01T19:37:39.680Z,100721.56
2019-05-01T19:40:10.954Z,100726.62
2019-05-01T19:42:41.932Z,100720.94
2019-05-01T19:45:13.398Z,100728.22
2019-05-01T19:47:44.371Z,100721.20
2019-05-01T19:50:16.329Z,100726.26
2019-05-01T19:52:47.384Z,100724.29
2019-05-01T19:55:18.425Z,100724.48
2019-05-01T19:57:49.447Z,100721.96
2019-05-01T20:00:41.792Z,100723.81
2019-05-01T20:03:12.784Z,100718.58
2019-05-01T20:05:43.748Z,100724.52
2019-05-01T20:08:14.776Z,100717.46
2019-05-01T20:11:05.100Z,100715.72
2019-05-01T20:13:36.139Z,100724.20
2019-05-01T20:16:08.347Z,100723.94
2019-05-01T20:18:39.351Z,100724.84
2019-05-01T20:21:10.330Z,100722.66
2019-05-01T20:23:41.342Z,100724.05
2019-05-01T20:26:12.300Z,100717.05
2019-05-01T20:28:43.287Z,100718.53
2019-05-01T20:31:14.289Z,100720.42
2019-05-01T20:33:45.283Z,100711.59
2019-05-01T20:36:16.267Z,100708.16
2019-05-01T20:38:47.242Z,100712.26
2019-05-01T20:41:18.239Z,100711.88
2019-05-01T20:43:49.224Z,100706.19
2019-05-01T20:46:21.494Z,100708.53
2019-05-01T20:48:55.996Z,100705.03
2019-05-01T20:51:26.339Z,100713.10
2019-05-01T20:53:57.404Z,100707.41
2019-05-01T20:56:32.815Z,100706.61
2019-05-01T20:59:04.954Z,100702.23
2019-05-01T21:01:36.080Z,100708.06
2019-05-01T21:04:24.275Z,100704.56
2019-05-01T21:07:15.604Z,100704.59
2019-05-01T21:09:56.898Z,100699.35
2019-05-01T21:12:21.510Z,100694.98
2019-05-01T21:14:52.480Z,100695.95
2019-05-01T21:17:23.544Z,100693.75
2019-05-01T21:19:55.387Z,100690.66
2019-05-01T21:22:26.363Z,100690.73
2019-05-01T21:24:57.368Z,100692.09
2019-05-01T21:27:28.349Z,100697.07
2019-05-01T21:29:59.316Z,100691.30
2019-05-01T21:32:30.326Z,100687.38
2019-05-01T21:35:01.563Z,100682.11
2019-05-01T21:37:32.540Z,100693.27
2019-05-01T21:40:05.651Z,100685.34
2019-05-01T21:42:37.333Z,100687.15
2019-05-01T21:45:08.444Z,100682.31
2019-05-01T21:47:39.456Z,100685.03
2019-05-01T21:50:10.501Z,100676.19
2019-05-01T21:52:43.618Z,100678.00
2019-05-01T21:55:14.240Z,100670.52
2019-05-01T21:57:49.227Z,100664.37
2019-05-01T22:00:20.096Z,100663.09
2019-05-01T22:02:51.113Z,100662.28
2019-05-01T22:05:22.088Z,100660.58
2019-05-01T22:07:53.532Z,100655.77
2019-05-01T22:10:26.508Z,100658.02
2019-05-01T22:12:57.183Z,100663.44
2019-05-01T22:15:42.089Z,100657.75
2019-05-01T22:18:22.052Z,100657.79
2019-05-01T22:21:12.262Z,100653.03
2019-05-01T22:24:01.207Z,100652.17
2019-05-01T22:26:33.832Z,100655.84
2019-05-01T22:29:06.449Z,100650.59
2019-05-01T22:31:47.821Z,100652.89
2019-05-01T22:34:20.459Z,100651.63
2019-05-01T22:36:51.439Z,100657.05
2019-05-01T22:39:24.050Z,100645.98
2019-05-01T22:41:55.033Z,100648.23
2019-05-01T22:44:26.028Z,100642.02
2019-05-01T22:46:57.008Z,100638.53
2019-05-01T22:49:27.983Z,100633.23
2019-05-01T22:51:58.962Z,100635.97
2019-05-01T22:54:29.956Z,100635.11
2019-05-01T22:57:01.239Z,100633.39
2019-05-01T22:59:32.221Z,100629.84
2019-05-01T23:02:24.324Z,100628.15
2019-05-01T23:04:55.261Z,100625.10
2019-05-01T23:07:26.613Z,100623.42
2019-05-01T23:09:59.377Z,100623.89
2019-05-01T23:12:30.290Z,100623.06
2019-05-01T23:15:01.339Z,100623.53
2019-05-01T23:17:34.941Z,100620.48
2019-05-01T23:20:08.999Z,100621.84
2019-05-01T23:22:39.966Z,100618.80
2019-05-01T23:25:11.027Z,100622.87
2019-05-01T23:27:42.078Z,100617.55
2019-05-01T23:30:16.232Z,100612.23
2019-05-01T23:32:47.204Z,100608.74
2019-05-01T23:35:18.185Z,100610.14
2019-05-01T23:37:49.198Z,100605.21
2019-05-01T23:40:20.842Z,100603.05
2019-05-01T23:42:53.685Z,100596.84
2019-05-01T23:45:24.501Z,100593.75
2019-05-01T23:47:55.541Z,100586.70
2019-05-01T23:50:26.521Z,100582.72
2019-05-01T23:52:57.499Z,100579.22
2019-05-01T23:55:28.474Z,100573.46
2019-05-01T23:57:59.460Z,100569.48
